createdAt,value
2022-10-22T00:01:07.961Z,100.00
2022-10-22T00:03:35.621Z,100.00
2022-10-22T00:06:03.317Z,100.00
2022-10-22T00:08:31.245Z,100.00
2022-10-22T00:10:59.235Z,100.00
2022-10-22T00:13:26.787Z,100.00
2022-10-22T00:15:55.205Z,100.00
2022-10-22T00:18:23.151Z,100.00
2022-10-22T00:20:50.632Z,100.00
2022-10-22T00:23:18.188Z,100.00
2022-10-22T00:25:46.263Z,100.00
2022-10-22T00:28:14.976Z,100.00
2022-10-22T00:30:42.889Z,100.00
2022-10-22T00:33:10.772Z,100.00
2022-10-22T00:35:38.777Z,100.00
2022-10-22T00:38:06.213Z,100.00
2022-10-22T00:40:34.226Z,100.00
2022-10-22T00:43:01.932Z,100.00
2022-10-22T00:45:29.670Z,100.00
2022-10-22T00:48:01.170Z,100.00
2022-10-22T00:50:43.691Z,100.00
2022-10-22T00:53:15.851Z,100.00
2022-10-22T00:55:46.539Z,100.00
2022-10-22T00:58:15.168Z,100.00
2022-10-22T01:00:43.380Z,100.00
2022-10-22T01:03:11.284Z,100.00
2022-10-22T01:05:55.986Z,100.00
2022-10-22T01:08:48.088Z,100.00
2022-10-22T01:11:35.498Z,100.00
2022-10-22T01:14:18.274Z,100.00
2022-10-22T01:17:01.296Z,100.00
2022-10-22T01:19:46.151Z,100.00
2022-10-22T01:22:29.044Z,100.00
2022-10-22T01:24:57.171Z,100.00
2022-10-22T01:27:37.283Z,100.00
2022-10-22T01:30:11.291Z,100.00
2022-10-22T01:32:48.396Z,100.00
2022-10-22T01:35:21.058Z,100.00
2022-10-22T01:37:54.160Z,100.00
2022-10-22T01:40:24.941Z,100.00
2022-10-22T01:43:07.394Z,100.00
2022-10-22T01:45:38.605Z,100.00
2022-10-22T01:48:27.559Z,100.00
2022-10-22T01:51:06.185Z,100.00
2022-10-22T01:53:58.136Z,100.00
2022-10-22T01:56:47.942Z,100.00
2022-10-22T01:59:21.530Z,100.00
2022-10-22T02:01:49.694Z,100.00
2022-10-22T02:04:29.158Z,100.00
2022-10-22T02:07:00.400Z,100.00
2022-10-22T02:09:30.148Z,100.00
2022-10-22T02:11:59.718Z,100.00
2022-10-22T02:14:30.280Z,100.00
2022-10-22T02:17:00.140Z,100.00
2022-10-22T02:19:49.738Z,100.00
2022-10-22T02:22:18.260Z,100.00
2022-10-22T02:24:46.556Z,100.00
2022-10-22T02:27:25.820Z,100.00
2022-10-22T02:30:08.692Z,100.00
2022-10-22T02:32:42.635Z,100.00
2022-10-22T02:35:15.263Z,100.00
2022-10-22T02:37:44.297Z,100.00
2022-10-22T02:40:12.383Z,100.00
2022-10-22T02:42:42.529Z,100.00
2022-10-22T02:45:10.594Z,100.00
2022-10-22T02:47:38.597Z,100.00
2022-10-22T02:50:09.617Z,100.00
2022-10-22T02:52:39.392Z,100.00
2022-10-22T02:55:08.315Z,100.00
2022-10-22T02:57:36.201Z,100.00
2022-10-22T03:00:09.451Z,100.00
2022-10-22T03:02:37.347Z,100.00
2022-10-22T03:05:05.774Z,100.00
2022-10-22T03:07:34.466Z,100.00
2022-10-22T03:10:02.289Z,100.00
2022-10-22T03:12:29.857Z,100.00
2022-10-22T03:14:58.506Z,100.00
2022-10-22T03:17:26.602Z,100.00
2022-10-22T03:19:54.087Z,100.00
2022-10-22T03:22:27.302Z,100.00
2022-10-22T03:25:00.721Z,100.00
2022-10-22T03:27:30.277Z,100.00
2022-10-22T03:29:58.847Z,100.00
2022-10-22T03:32:26.841Z,100.00
2022-10-22T03:34:55.054Z,100.00
2022-10-22T03:37:24.271Z,100.00
2022-10-22T03:39:53.045Z,100.00
2022-10-22T03:42:21.528Z,100.00
2022-10-22T03:44:49.223Z,100.00
2022-10-22T03:47:16.721Z,100.00
2022-10-22T03:49:44.734Z,100.00
2022-10-22T03:52:14.463Z,100.00
2022-10-22T03:54:42.589Z,100.00
2022-10-22T03:57:11.347Z,100.00
2022-10-22T03:59:44.652Z,100.00
2022-10-22T04:02:13.632Z,100.00
2022-10-22T04:04:41.666Z,100.00
2022-10-22T04:07:09.427Z,100.00
2022-10-22T04:09:37.261Z,100.00
2022-10-22T04:12:06.635Z,100.00
2022-10-22T04:14:34.355Z,100.00
2022-10-22T04:17:02.162Z,100.00
2022-10-22T04:19:29.920Z,100.00
2022-10-22T04:21:59.942Z,100.00
2022-10-22T04:24:27.985Z,100.00
2022-10-22T04:26:55.997Z,100.00
2022-10-22T04:29:24.305Z,100.00
2022-10-22T04:31:52.992Z,100.00
2022-10-22T04:34:21.283Z,100.00
2022-10-22T04:36:48.962Z,100.00
2022-10-22T04:39:16.442Z,100.00
2022-10-22T04:41:44.160Z,100.00
2022-10-22T04:44:15.942Z,100.00
2022-10-22T04:46:45.048Z,100.00
2022-10-22T04:49:13.102Z,100.00
2022-10-22T04:51:40.584Z,100.00
2022-10-22T04:54:08.592Z,100.00
2022-10-22T04:56:36.259Z,100.00
2022-10-22T04:59:06.846Z,100.00
2022-10-22T05:01:41.611Z,100.00
2022-10-22T05:04:13.679Z,100.00
2022-10-22T05:06:41.500Z,100.00
2022-10-22T05:09:13.567Z,100.00
2022-10-22T05:11:45.558Z,100.00
2022-10-22T05:14:13.328Z,100.00
2022-10-22T05:16:40.973Z,100.00
2022-10-22T05:19:09.680Z,100.00
2022-10-22T05:21:37.654Z,100.00
2022-10-22T05:24:05.650Z,100.00
2022-10-22T05:26:33.279Z,100.00
2022-10-22T05:29:01.249Z,100.00
2022-10-22T05:31:29.579Z,100.00
2022-10-22T05:33:57.496Z,100.00
2022-10-22T05:36:26.059Z,100.00
2022-10-22T05:38:54.336Z,100.00
2022-10-22T05:41:24.140Z,100.00
2022-10-22T05:43:54.167Z,100.00
2022-10-22T05:46:23.498Z,100.00
2022-10-22T05:48:59.518Z,100.00
2022-10-22T05:51:28.846Z,100.00
2022-10-22T05:54:01.828Z,100.00
2022-10-22T05:56:32.074Z,100.00
2022-10-22T05:59:00.302Z,100.00
2022-10-22T06:01:31.164Z,100.00
2022-10-22T06:04:02.411Z,100.00
2022-10-22T06:06:38.398Z,100.00
2022-10-22T06:09:39.572Z,100.00
2022-10-22T06:12:10.854Z,100.00
2022-10-22T06:14:38.799Z,100.00
2022-10-22T06:17:06.347Z,100.00
2022-10-22T06:19:34.320Z,100.00
2022-10-22T06:22:01.807Z,100.00
2022-10-22T06:24:30.454Z,100.00
2022-10-22T06:26:57.977Z,100.00
2022-10-22T06:29:25.485Z,100.00
2022-10-22T06:31:53.890Z,100.00
2022-10-22T06:34:21.926Z,100.00
2022-10-22T06:36:51.642Z,100.00
2022-10-22T06:39:19.393Z,100.00
2022-10-22T06:41:47.118Z,100.00
2022-10-22T06:44:19.816Z,100.00
2022-10-22T06:46:52.453Z,100.00
2022-10-22T06:49:20.954Z,100.00
2022-10-22T06:51:53.351Z,100.00
2022-10-22T06:54:22.321Z,100.00
2022-10-22T06:56:50.474Z,100.00
2022-10-22T06:59:18.933Z,100.00
2022-10-22T07:01:46.734Z,100.00
2022-10-22T07:04:15.013Z,100.00
2022-10-22T07:06:42.640Z,100.00
2022-10-22T07:09:10.163Z,100.00
2022-10-22T07:11:44.981Z,100.00
2022-10-22T07:14:13.728Z,100.00
2022-10-22T07:16:43.339Z,100.00
2022-10-22T07:19:10.924Z,100.00
2022-10-22T07:21:39.831Z,100.00
2022-10-22T07:24:07.623Z,100.00
2022-10-22T07:26:35.384Z,100.00
2022-10-22T07:29:04.860Z,100.00
2022-10-22T07:31:32.373Z,100.00
2022-10-22T07:34:00.258Z,100.00
2022-10-22T07:36:28.193Z,100.00
2022-10-22T07:38:57.841Z,100.00
2022-10-22T07:41:26.432Z,100.00
2022-10-22T07:43:54.296Z,100.00
2022-10-22T07:46:22.222Z,100.00
2022-10-22T07:48:49.851Z,100.00
2022-10-22T07:51:17.754Z,100.00
2022-10-22T07:53:45.556Z,100.00
2022-10-22T07:56:13.961Z,100.00
2022-10-22T07:58:41.902Z,100.00
2022-10-22T08:01:09.726Z,100.00
2022-10-22T08:03:37.245Z,100.00
2022-10-22T08:06:05.160Z,100.00
2022-10-22T08:08:34.766Z,100.00
2022-10-22T08:11:02.950Z,100.00
2022-10-22T08:13:30.978Z,100.00
2022-10-22T08:16:00.812Z,100.00
2022-10-22T08:18:29.239Z,100.00
2022-10-22T08:20:57.198Z,100.00
2022-10-22T08:23:27.691Z,96.25
2022-10-22T08:25:57.647Z,96.13
2022-10-22T08:28:26.071Z,96.17
2022-10-22T08:30:54.076Z,95.21
2022-10-22T08:33:21.752Z,94.87
2022-10-22T08:35:51.289Z,95.24
2022-10-22T08:38:19.686Z,92.85
2022-10-22T08:40:50.941Z,88.82
2022-10-22T08:43:24.423Z,82.84
2022-10-22T08:46:17.933Z,83.52
2022-10-22T08:48:52.624Z,87.33
2022-10-22T08:51:26.121Z,88.23
2022-10-22T08:54:02.427Z,87.98
2022-10-22T08:56:31.523Z,86.59
2022-10-22T08:59:08.100Z,87.40
2022-10-22T09:01:40.162Z,90.87
2022-10-22T09:04:30.848Z,89.95
2022-10-22T09:07:00.851Z,88.96
2022-10-22T09:09:35.254Z,92.56
2022-10-22T09:12:07.236Z,92.23
2022-10-22T09:14:35.489Z,92.21
2022-10-22T09:17:20.849Z,92.63
2022-10-22T09:20:03.530Z,93.28
2022-10-22T09:22:40.306Z,94.16
2022-10-22T09:25:28.351Z,95.00
2022-10-22T09:27:58.504Z,91.46
2022-10-22T09:30:30.672Z,91.06
2022-10-22T09:33:02.751Z,83.56
2022-10-22T09:35:34.394Z,78.89
2022-10-22T09:38:08.541Z,79.47
2022-10-22T09:40:49.853Z,82.21
2022-10-22T09:43:18.305Z,84.74
2022-10-22T09:45:47.119Z,82.13
2022-10-22T09:48:15.029Z,83.59
2022-10-22T09:50:56.176Z,80.26
2022-10-22T09:53:30.357Z,78.38
2022-10-22T09:56:01.361Z,76.66
2022-10-22T09:58:29.148Z,70.25
2022-10-22T10:00:59.120Z,67.54
2022-10-22T10:03:31.864Z,64.11
2022-10-22T10:06:05.922Z,63.20
2022-10-22T10:08:34.917Z,63.89
2022-10-22T10:11:17.823Z,67.46
2022-10-22T10:14:04.730Z,71.16
2022-10-22T10:16:39.340Z,64.18
2022-10-22T10:19:13.221Z,64.55
2022-10-22T10:21:58.154Z,66.64
2022-10-22T10:24:54.123Z,66.04
2022-10-22T10:27:31.056Z,66.10
2022-10-22T10:30:21.403Z,69.27
2022-10-22T10:33:38.915Z,72.14
2022-10-22T10:36:57.015Z,77.92
2022-10-22T10:39:51.476Z,79.11
2022-10-22T10:42:35.249Z,77.81
2022-10-22T10:45:09.512Z,74.85
2022-10-22T10:48:10.100Z,75.57
2022-10-22T10:50:53.601Z,74.39
2022-10-22T10:53:57.887Z,74.22
2022-10-22T10:56:39.423Z,72.84
2022-10-22T10:59:44.031Z,76.09
2022-10-22T11:02:33.382Z,73.25
2022-10-22T11:05:21.060Z,73.10
2022-10-22T11:07:58.565Z,68.47
2022-10-22T11:10:35.470Z,64.45
2022-10-22T11:13:29.649Z,64.75
2022-10-22T11:16:07.140Z,64.12
2022-10-22T11:18:53.134Z,65.81
2022-10-22T11:21:24.071Z,60.73
2022-10-22T11:24:02.775Z,56.52
2022-10-22T11:27:05.236Z,54.02
2022-10-22T11:29:43.033Z,54.55
2022-10-22T11:32:17.550Z,55.80
2022-10-22T11:34:49.759Z,59.08
2022-10-22T11:37:18.018Z,60.20
2022-10-22T11:39:51.182Z,62.05
2022-10-22T11:42:32.291Z,62.60
2022-10-22T11:45:01.523Z,61.34
2022-10-22T11:47:59.021Z,60.56
2022-10-22T11:50:47.622Z,66.60
2022-10-22T11:53:15.286Z,63.82
2022-10-22T11:55:49.042Z,63.88
2022-10-22T11:58:29.204Z,67.70
2022-10-22T12:01:17.732Z,69.46
2022-10-22T12:03:45.682Z,70.81
2022-10-22T12:06:13.380Z,74.29
2022-10-22T12:08:50.312Z,77.97
2022-10-22T12:11:26.137Z,80.83
2022-10-22T12:14:19.867Z,82.63
2022-10-22T12:16:58.396Z,85.05
2022-10-22T12:19:30.408Z,86.42
2022-10-22T12:22:03.600Z,86.32
2022-10-22T12:24:35.321Z,87.01
2022-10-22T12:27:03.189Z,87.65
2022-10-22T12:29:32.903Z,87.44
2022-10-22T12:32:05.189Z,84.82
2022-10-22T12:34:33.133Z,84.33
2022-10-22T12:37:04.963Z,82.47
2022-10-22T12:39:35.122Z,79.22
2022-10-22T12:42:05.529Z,77.50
2022-10-22T12:44:33.166Z,73.27
2022-10-22T12:47:01.096Z,71.87
2022-10-22T12:49:36.732Z,70.59
2022-10-22T12:52:10.852Z,67.92
2022-10-22T12:54:41.355Z,68.00
2022-10-22T12:57:15.102Z,66.56
2022-10-22T12:59:49.608Z,65.30
2022-10-22T13:02:22.895Z,62.70
2022-10-22T13:05:20.862Z,62.37
2022-10-22T13:08:13.497Z,61.09
2022-10-22T13:10:49.119Z,60.32
2022-10-22T13:13:45.668Z,64.54
2022-10-22T13:16:17.746Z,62.81
2022-10-22T13:18:46.500Z,63.18
2022-10-22T13:21:39.655Z,65.92
2022-10-22T13:24:22.962Z,66.09
2022-10-22T13:26:55.072Z,65.59
2022-10-22T13:29:25.022Z,66.67
2022-10-22T13:31:53.619Z,68.85
2022-10-22T13:34:24.786Z,70.37
2022-10-22T13:36:53.697Z,69.78
2022-10-22T13:39:23.771Z,70.01
2022-10-22T13:41:51.945Z,71.77
2022-10-22T13:44:20.008Z,71.72
2022-10-22T13:46:48.964Z,70.05
2022-10-22T13:49:20.081Z,68.53
2022-10-22T13:51:48.069Z,65.36
2022-10-22T13:54:22.595Z,66.34
2022-10-22T13:56:50.311Z,66.96
2022-10-22T13:59:21.197Z,60.56
2022-10-22T14:01:51.883Z,49.57
2022-10-22T14:04:19.624Z,40.33
2022-10-22T14:06:47.179Z,35.81
2022-10-22T14:09:16.335Z,35.39
2022-10-22T14:11:44.464Z,34.33
2022-10-22T14:14:14.372Z,34.14
2022-10-22T14:16:42.115Z,35.71
2022-10-22T14:19:16.439Z,35.41
2022-10-22T14:21:44.174Z,36.70
2022-10-22T14:24:13.257Z,34.15
2022-10-22T14:26:41.569Z,32.19
2022-10-22T14:29:10.774Z,37.33
2022-10-22T14:31:42.258Z,39.13
2022-10-22T14:34:12.429Z,35.20
2022-10-22T14:36:39.931Z,34.09
2022-10-22T14:39:07.808Z,34.81
2022-10-22T14:41:36.625Z,36.41
2022-10-22T14:44:04.799Z,35.28
2022-10-22T14:46:32.360Z,33.61
2022-10-22T14:48:59.934Z,32.69
2022-10-22T14:51:27.471Z,34.26
2022-10-22T14:53:55.314Z,36.13
2022-10-22T14:56:23.001Z,38.71
2022-10-22T14:58:50.906Z,36.66
2022-10-22T15:01:18.864Z,39.14
2022-10-22T15:03:46.920Z,37.47
2022-10-22T15:06:15.057Z,38.89
2022-10-22T15:08:42.898Z,41.59
2022-10-22T15:11:12.426Z,42.15
2022-10-22T15:13:41.432Z,45.60
2022-10-22T15:16:10.913Z,53.14
2022-10-22T15:18:39.368Z,65.41
2022-10-22T15:21:15.790Z,67.79
2022-10-22T15:23:43.859Z,68.29
2022-10-22T15:26:13.382Z,69.37
2022-10-22T15:28:42.297Z,73.56
2022-10-22T15:31:13.399Z,75.36
2022-10-22T15:33:42.579Z,75.80
2022-10-22T15:36:15.662Z,76.88
2022-10-22T15:38:43.137Z,78.36
2022-10-22T15:41:13.463Z,79.71
2022-10-22T15:43:41.338Z,81.37
2022-10-22T15:46:13.231Z,84.28
2022-10-22T15:48:42.191Z,86.98
2022-10-22T15:51:18.479Z,87.32
2022-10-22T15:53:52.620Z,87.25
2022-10-22T15:56:20.795Z,88.89
2022-10-22T15:58:52.228Z,89.01
2022-10-22T16:01:20.080Z,89.48
2022-10-22T16:03:48.349Z,90.19
2022-10-22T16:06:16.017Z,91.36
2022-10-22T16:08:43.666Z,91.27
2022-10-22T16:11:13.154Z,91.40
2022-10-22T16:13:40.735Z,92.29
2022-10-22T16:16:09.013Z,92.76
2022-10-22T16:18:36.835Z,93.03
2022-10-22T16:21:04.529Z,92.99
2022-10-22T16:23:32.208Z,92.57
2022-10-22T16:26:02.045Z,92.72
2022-10-22T16:28:30.092Z,93.71
2022-10-22T16:31:02.575Z,95.15
2022-10-22T16:33:39.204Z,95.03
2022-10-22T16:36:17.891Z,95.84
2022-10-22T16:38:47.089Z,96.28
2022-10-22T16:41:19.639Z,96.60
2022-10-22T16:43:49.709Z,96.47
2022-10-22T16:46:19.856Z,97.03
2022-10-22T16:48:49.297Z,97.49
2022-10-22T16:51:19.610Z,98.01
2022-10-22T16:53:47.808Z,98.66
2022-10-22T16:56:16.764Z,98.24
2022-10-22T16:58:53.004Z,99.39
2022-10-22T17:01:22.928Z,99.80
2022-10-22T17:03:51.353Z,99.85
2022-10-22T17:06:18.926Z,100.00
2022-10-22T17:08:47.940Z,100.00
2022-10-22T17:11:19.030Z,100.00
2022-10-22T17:13:52.685Z,100.00
2022-10-22T17:16:23.465Z,100.00
2022-10-22T17:18:52.888Z,100.00
2022-10-22T17:21:21.848Z,100.00
2022-10-22T17:23:55.805Z,100.00
2022-10-22T17:26:26.485Z,100.00
2022-10-22T17:28:54.758Z,100.00
2022-10-22T17:31:25.494Z,100.00
2022-10-22T17:33:55.478Z,100.00
2022-10-22T17:36:25.004Z,100.00
2022-10-22T17:38:58.201Z,100.00
2022-10-22T17:41:34.952Z,100.00
2022-10-22T17:44:05.266Z,100.00
2022-10-22T17:46:33.132Z,100.00
2022-10-22T17:49:12.407Z,100.00
2022-10-22T17:51:40.551Z,100.00
2022-10-22T17:54:09.930Z,100.00
2022-10-22T17:56:40.381Z,100.00
2022-10-22T17:59:12.318Z,100.00
2022-10-22T18:01:45.242Z,100.00
2022-10-22T18:04:18.444Z,100.00
2022-10-22T18:06:47.985Z,100.00
2022-10-22T18:09:18.740Z,100.00
2022-10-22T18:11:48.473Z,100.00
2022-10-22T18:14:21.279Z,100.00
2022-10-22T18:16:49.327Z,100.00
2022-10-22T18:19:23.360Z,100.00
2022-10-22T18:21:51.446Z,100.00
2022-10-22T18:24:19.078Z,100.00
2022-10-22T18:26:46.742Z,100.00
2022-10-22T18:29:16.973Z,100.00
2022-10-22T18:31:45.507Z,100.00
2022-10-22T18:34:13.150Z,100.00
2022-10-22T18:36:41.804Z,100.00
2022-10-22T18:39:14.978Z,100.00
2022-10-22T18:41:43.369Z,100.00
2022-10-22T18:44:13.902Z,100.00
2022-10-22T18:46:41.759Z,100.00
2022-10-22T18:49:15.989Z,100.00
2022-10-22T18:51:44.405Z,100.00
2022-10-22T18:54:22.596Z,100.00
2022-10-22T18:56:52.416Z,100.00
2022-10-22T18:59:23.287Z,100.00
2022-10-22T19:01:57.643Z,100.00
2022-10-22T19:04:31.194Z,100.00
2022-10-22T19:06:59.222Z,100.00
2022-10-22T19:09:26.831Z,100.00
2022-10-22T19:11:54.952Z,100.00
2022-10-22T19:14:22.917Z,100.00
2022-10-22T19:16:50.561Z,100.00
2022-10-22T19:19:19.983Z,100.00
2022-10-22T19:21:49.075Z,100.00
2022-10-22T19:24:19.176Z,100.00
2022-10-22T19:26:47.435Z,100.00
2022-10-22T19:29:17.111Z,100.00
2022-10-22T19:31:45.909Z,100.00
2022-10-22T19:34:14.058Z,100.00
2022-10-22T19:36:42.431Z,100.00
2022-10-22T19:39:10.413Z,100.00
2022-10-22T19:41:38.007Z,100.00
2022-10-22T19:44:06.138Z,100.00
2022-10-22T19:46:33.814Z,100.00
2022-10-22T19:49:03.382Z,100.00
2022-10-22T19:51:33.453Z,100.00
2022-10-22T19:54:03.824Z,100.00
2022-10-22T19:56:33.593Z,100.00
2022-10-22T19:59:02.437Z,100.00
2022-10-22T20:01:31.859Z,100.00
2022-10-22T20:04:01.499Z,100.00
2022-10-22T20:06:30.046Z,100.00
2022-10-22T20:08:58.132Z,100.00
2022-10-22T20:11:29.894Z,100.00
2022-10-22T20:13:58.648Z,100.00
2022-10-22T20:16:29.893Z,100.00
2022-10-22T20:19:04.265Z,100.00
2022-10-22T20:21:33.304Z,100.00
2022-10-22T20:24:02.682Z,100.00
2022-10-22T20:26:31.728Z,100.00
2022-10-22T20:28:59.367Z,100.00
2022-10-22T20:31:29.358Z,100.00
2022-10-22T20:33:58.963Z,100.00
2022-10-22T20:36:28.749Z,100.00
2022-10-22T20:39:07.670Z,100.00
2022-10-22T20:41:40.784Z,100.00
2022-10-22T20:44:12.916Z,100.00
2022-10-22T20:46:41.099Z,100.00
2022-10-22T20:49:12.299Z,100.00
2022-10-22T20:51:40.894Z,100.00
2022-10-22T20:54:08.865Z,100.00
2022-10-22T20:56:39.336Z,100.00
2022-10-22T20:59:10.850Z,100.00
2022-10-22T21:01:40.195Z,100.00
2022-10-22T21:04:08.823Z,100.00
2022-10-22T21:06:40.422Z,100.00
2022-10-22T21:09:12.928Z,100.00
2022-10-22T21:11:42.405Z,100.00
2022-10-22T21:14:12.146Z,100.00
2022-10-22T21:16:44.496Z,100.00
2022-10-22T21:19:12.244Z,100.00
2022-10-22T21:21:40.631Z,100.00
2022-10-22T21:24:08.836Z,100.00
2022-10-22T21:26:41.164Z,100.00
2022-10-22T21:29:11.228Z,100.00
2022-10-22T21:31:40.508Z,100.00
2022-10-22T21:34:08.215Z,100.00
2022-10-22T21:36:36.302Z,100.00
2022-10-22T21:39:04.652Z,100.00
2022-10-22T21:41:33.229Z,100.00
2022-10-22T21:44:00.747Z,100.00
2022-10-22T21:46:29.606Z,100.00
2022-10-22T21:49:02.725Z,100.00
2022-10-22T21:51:32.682Z,100.00
2022-10-22T21:54:00.506Z,100.00
2022-10-22T21:56:35.971Z,100.00
2022-10-22T21:59:05.499Z,100.00
2022-10-22T22:01:34.046Z,100.00
2022-10-22T22:04:01.962Z,100.00
2022-10-22T22:06:33.537Z,100.00
2022-10-22T22:09:03.288Z,100.00
2022-10-22T22:11:31.403Z,100.00
2022-10-22T22:13:59.838Z,100.00
2022-10-22T22:16:32.787Z,100.00
2022-10-22T22:21:39.420Z,100.00
2022-10-22T22:24:08.348Z,100.00
2022-10-22T22:26:36.289Z,100.00
2022-10-22T22:29:03.766Z,100.00
2022-10-22T22:31:33.828Z,100.00
2022-10-22T22:34:04.565Z,100.00
2022-10-22T22:36:39.054Z,100.00
2022-10-22T22:39:11.143Z,100.00
2022-10-22T22:41:39.055Z,100.00
2022-10-22T22:44:07.231Z,100.00
2022-10-22T22:46:35.194Z,100.00
2022-10-22T22:49:03.395Z,100.00
2022-10-22T22:51:31.470Z,100.00
2022-10-22T22:54:00.816Z,100.00
2022-10-22T22:56:30.542Z,100.00
2022-10-22T22:58:58.877Z,100.00
2022-10-22T23:01:29.418Z,100.00
2022-10-22T23:04:03.158Z,100.00
2022-10-22T23:06:33.405Z,100.00
2022-10-22T23:09:01.118Z,100.00
2022-10-22T23:11:29.045Z,100.00
2022-10-22T23:13:59.655Z,100.00
2022-10-22T23:16:31.502Z,100.00
2022-10-22T23:19:01.197Z,100.00
2022-10-22T23:21:35.478Z,100.00
2022-10-22T23:24:07.546Z,100.00
2022-10-22T23:26:39.804Z,100.00
2022-10-22T23:29:19.169Z,100.00
2022-10-22T23:31:48.791Z,100.00
2022-10-22T23:36:47.476Z,100.00
2022-10-22T23:39:18.875Z,100.00
2022-10-22T23:41:47.214Z,100.00
2022-10-22T23:44:14.891Z,100.00
2022-10-22T23:46:42.932Z,100.00
2022-10-22T23:49:11.097Z,100.00
2022-10-22T23:51:39.633Z,100.00
2022-10-22T23:54:11.436Z,100.00
2022-10-22T23:56:39.308Z,100.00
2022-10-22T23:59:07.778Z,100.00
